Time;durP1;ratioP1;P1;durP2;ratioP2;P2;SDS_P1;SDS_P2;PMS_P1;PMS_P2;Temp;Humidity;BMP_temperature;BMP_pressure;BME280_temperature;BME280_humidity;BME280_pressure;Samples;Min_cycle;Max_cycle;Signal;HPM_P1;HPM_P2
2022/07/31 00:01:28;;;;;;;;;;;;;;;17.27;93.45;100709.59;4989344;28;1794;-85
2022/07/31 00:03:53;;;;;;;;;;;;;;;17.38;92.36;100694.34;4999378;28;1401;-85
2022/07/31 00:06:18;;;;;;;;;;;;;;;17.41;91.91;100698.44;4989046;28;1591;-85
2022/07/31 00:08:43;;;;;;;;;;;;;;;17.42;92.28;100700.06;4995175;28;1662;-86
2022/07/31 00:11:10;;;;;;;;;;;;;;;17.40;91.65;100694.84;5000045;28;1659;-85
2022/07/31 00:13:35;;;;;;;;;;;;;;;17.41;91.46;100701.19;5000728;28;1295;-85
2022/07/31 00:16:00;;;;;;;;;;;;;;;17.45;91.48;100693.88;4983595;28;2241;-85
2022/07/31 00:18:25;;;;;;;;;;;;;;;17.32;92.60;100703.13;4979569;28;1220;-85
2022/07/31 00:20:51;;;;;;;;;;;;;;;17.21;92.85;100701.75;4985295;28;1382;-85
2022/07/31 00:23:16;;;;;;;;;;;;;;;17.22;92.75;100700.63;4995392;28;1562;-85
2022/07/31 00:25:41;;;;;;;;;;;;;;;17.20;93.08;100702.91;4998968;28;1557;-85
2022/07/31 00:28:06;;;;;;;;;;;;;;;17.23;92.47;100707.81;4999727;28;1189;-85
2022/07/31 00:30:31;;;;;;;;;;;;;;;17.28;92.21;100699.34;4999895;28;1044;-85
2022/07/31 00:32:56;;;;;;;;;;;;;;;17.34;92.40;100700.84;4999689;28;1277;-85
2022/07/31 00:35:22;;;;;;;;;;;;;;;17.33;93.29;100708.34;5000949;28;1957;-85
2022/07/31 00:37:47;;;;;;;;;;;;;;;17.37;93.39;100705.72;4999255;28;1189;-85
2022/07/31 00:40:14;;;;;;;;;;;;;;;17.37;92.96;100709.31;4998951;28;1272;-85
2022/07/31 00:42:39;;;;;;;;;;;;;;;17.33;92.95;100708.34;4998902;28;1223;-85
2022/07/31 00:45:05;;;;;;;;;;;;;;;17.23;92.32;100716.09;5000013;28;896;-86
2022/07/31 00:47:30;;;;;;;;;;;;;;;17.22;92.83;100706.16;4998773;28;1164;-85
2022/07/31 00:49:55;;;;;;;;;;;;;;;17.16;92.08;100701.91;4998897;28;1216;-86
2022/07/31 00:52:20;;;;;;;;;;;;;;;17.19;92.28;100701.25;4998481;28;1008;-86
2022/07/31 00:54:46;;;;;;;;;;;;;;;17.20;93.19;100695.41;4993817;28;1405;-86
2022/07/31 00:57:11;;;;;;;;;;;;;;;17.27;93.11;100684.69;4994105;28;1889;-85
2022/07/31 00:59:36;;;;;;;;;;;;;;;17.29;91.67;100681.63;4979360;28;1389;-86
2022/07/31 01:02:01;;;;;;;;;;;;;;;17.24;91.82;100685.34;4977677;28;1370;-86
2022/07/31 01:04:27;;;;;;;;;;;;;;;17.10;92.98;100690.16;4981356;28;1071;-83
2022/07/31 01:06:52;;;;;;;;;;;;;;;17.18;93.24;100683.84;5008570;28;1200;-85
2022/07/31 01:09:17;;;;;;;;;;;;;;;17.25;93.41;100680.63;5007059;28;1723;-85
2022/07/31 01:11:47;;;;;;;;;;;;;;;17.25;93.20;100672.34;5000994;28;872;-85
2022/07/31 01:14:12;;;;;;;;;;;;;;;17.27;92.37;100678.34;4999330;28;1015;-86
2022/07/31 01:16:40;;;;;;;;;;;;;;;17.21;91.81;100686.00;4998259;28;1886;-85
2022/07/31 01:19:27;;;;;;;;;;;;;;;17.15;92.65;100676.22;4997015;28;1460;-86
2022/07/31 01:22:11;;;;;;;;;;;;;;;17.07;93.13;100676.19;4978502;28;1336;-85
2022/07/31 01:24:43;;;;;;;;;;;;;;;17.07;93.09;100684.47;4979494;28;1441;-85
2022/07/31 01:27:32;;;;;;;;;;;;;;;17.08;93.57;100686.09;4984189;28;976;-85
2022/07/31 01:29:59;;;;;;;;;;;;;;;17.00;93.33;100685.75;4986090;28;1322;-87
2022/07/31 01:32:28;;;;;;;;;;;;;;;16.93;93.84;100679.84;5000098;28;1035;-85
2022/07/31 01:34:56;;;;;;;;;;;;;;;16.87;93.28;100681.13;5000445;28;1023;-85
2022/07/31 01:37:43;;;;;;;;;;;;;;;16.87;94.47;100675.59;4998381;28;1955;-86
2022/07/31 01:40:13;;;;;;;;;;;;;;;16.93;93.39;100681.78;4998313;28;1432;-86
2022/07/31 01:42:39;;;;;;;;;;;;;;;16.92;93.51;100677.44;4998033;28;1468;-85
2022/07/31 01:45:07;;;;;;;;;;;;;;;16.90;93.45;100680.50;4997738;28;1248;-85
2022/07/31 01:47:33;;;;;;;;;;;;;;;16.85;93.48;100680.63;4997463;28;1243;-85
2022/07/31 01:50:00;;;;;;;;;;;;;;;16.87;93.78;100677.53;4998069;28;1277;-86
2022/07/31 01:52:27;;;;;;;;;;;;;;;16.94;93.47;100673.19;4999073;28;1578;-85
2022/07/31 01:54:53;;;;;;;;;;;;;;;16.93;93.31;100674.31;4997628;28;1228;-85
2022/07/31 01:57:21;;;;;;;;;;;;;;;16.93;93.92;100676.25;4998196;28;1965;-85
2022/07/31 01:59:47;;;;;;;;;;;;;;;16.84;93.79;100676.22;4997897;28;1342;-85
2022/07/31 02:02:13;;;;;;;;;;;;;;;16.78;93.20;100663.69;4998135;28;1306;-85
2022/07/31 02:04:39;;;;;;;;;;;;;;;16.79;93.92;100670.84;4996420;28;1294;-85
2022/07/31 02:07:04;;;;;;;;;;;;;;;16.66;93.63;100671.75;4997259;28;1549;-85
2022/07/31 02:09:30;;;;;;;;;;;;;;;16.75;93.46;100664.34;5000329;28;1197;-85
2022/07/31 02:11:56;;;;;;;;;;;;;;;16.81;93.64;100665.81;4997412;28;1309;-85
2022/07/31 02:14:22;;;;;;;;;;;;;;;16.75;93.17;100660.75;4997979;28;1283;-86
2022/07/31 02:16:48;;;;;;;;;;;;;;;16.73;93.63;100661.06;4997783;28;1886;-85
2022/07/31 02:19:14;;;;;;;;;;;;;;;16.79;93.69;100659.78;4997584;28;1329;-85
2022/07/31 02:21:40;;;;;;;;;;;;;;;16.70;92.75;100671.94;4997026;28;1638;-85
2022/07/31 02:24:05;;;;;;;;;;;;;;;16.56;93.44;100672.00;4998078;28;1011;-85
2022/07/31 02:26:32;;;;;;;;;;;;;;;16.47;94.01;100663.66;4995840;28;1145;-85
2022/07/31 02:28:58;;;;;;;;;;;;;;;16.52;94.13;100660.75;4998458;28;1280;-85
2022/07/31 02:31:24;;;;;;;;;;;;;;;16.50;93.54;100651.16;4997604;28;1277;-86
2022/07/31 02:33:49;;;;;;;;;;;;;;;16.46;93.71;100653.72;4996988;28;1394;-85
2022/07/31 02:36:16;;;;;;;;;;;;;;;16.44;93.92;100656.00;4998690;28;1898;-85
2022/07/31 02:38:42;;;;;;;;;;;;;;;16.35;92.90;100657.06;4980847;28;1771;-86
2022/07/31 02:41:08;;;;;;;;;;;;;;;16.35;93.35;100648.78;4982255;28;1652;-85
2022/07/31 02:43:34;;;;;;;;;;;;;;;16.31;93.30;100656.06;4995968;28;1188;-85
2022/07/31 02:45:59;;;;;;;;;;;;;;;16.25;93.08;100649.84;4993370;28;1782;-85
2022/07/31 02:48:25;;;;;;;;;;;;;;;16.21;93.08;100655.19;4997096;28;1511;-85
2022/07/31 02:50:50;;;;;;;;;;;;;;;16.14;92.97;100652.06;4994652;28;1801;-85
2022/07/31 02:53:16;;;;;;;;;;;;;;;16.05;93.41;100653.13;4998094;28;1484;-85
2022/07/31 02:55:42;;;;;;;;;;;;;;;16.10;92.97;100648.28;4994968;28;1902;-85
2022/07/31 02:58:07;;;;;;;;;;;;;;;16.10;92.66;100653.81;4998709;28;1560;-85
2022/07/31 03:00:33;;;;;;;;;;;;;;;16.09;91.79;100649.41;4999995;28;1797;-85
2022/07/31 03:02:58;;;;;;;;;;;;;;;16.00;91.66;100651.28;4993079;28;1562;-85
2022/07/31 03:05:23;;;;;;;;;;;;;;;16.02;91.04;100662.84;4988526;28;1738;-85
2022/07/31 03:07:48;;;;;;;;;;;;;;;15.85;91.15;100660.75;4997200;28;1575;-85
2022/07/31 03:10:13;;;;;;;;;;;;;;;15.85;91.72;100657.19;5030629;22;1760;-85
2022/07/31 03:12:40;;;;;;;;;;;;;;;15.81;91.81;100651.47;5024598;28;1004;-85
2022/07/31 03:15:10;;;;;;;;;;;;;;;15.85;91.59;100654.41;5023856;28;1188;-87
2022/07/31 03:17:37;;;;;;;;;;;;;;;15.82;90.80;100653.09;5024345;28;1906;-86
2022/07/31 03:20:02;;;;;;;;;;;;;;;15.73;91.32;100646.69;5010892;28;1499;-86
2022/07/31 03:22:27;;;;;;;;;;;;;;;15.78;91.07;100652.09;5002816;28;1503;-87
2022/07/31 03:24:54;;;;;;;;;;;;;;;15.82;90.94;100650.31;5005623;28;1596;-88
2022/07/31 03:27:20;;;;;;;;;;;;;;;15.81;90.32;100648.72;5006064;28;1599;-87
2022/07/31 03:29:45;;;;;;;;;;;;;;;15.80;90.77;100643.50;5006983;28;1555;-89
2022/07/31 03:32:10;;;;;;;;;;;;;;;15.82;90.37;100644.03;4999714;28;1527;-87
2022/07/31 03:34:35;;;;;;;;;;;;;;;15.76;90.76;100645.25;5005112;28;1789;-88
2022/07/31 03:37:00;;;;;;;;;;;;;;;15.80;90.97;100649.84;5006332;28;1933;-87
2022/07/31 03:39:25;;;;;;;;;;;;;;;15.85;90.71;100654.41;5009319;28;1263;-87
2022/07/31 03:41:51;;;;;;;;;;;;;;;15.77;89.73;100655.16;5010746;28;897;-87
2022/07/31 03:44:17;;;;;;;;;;;;;;;15.65;89.94;100650.16;5009460;28;826;-88
2022/07/31 03:46:43;;;;;;;;;;;;;;;15.62;90.53;100655.50;5010495;28;1181;-87
2022/07/31 03:49:08;;;;;;;;;;;;;;;15.71;90.39;100648.94;5010445;28;1698;-88
2022/07/31 03:51:33;;;;;;;;;;;;;;;15.69;89.66;100642.91;5010640;28;1186;-87
2022/07/31 03:53:58;;;;;;;;;;;;;;;15.62;89.67;100645.28;5011152;28;912;-88
2022/07/31 03:56:24;;;;;;;;;;;;;;;15.54;89.93;100646.03;5010310;28;1874;-87
2022/07/31 03:58:49;;;;;;;;;;;;;;;15.55;89.86;100647.66;5011071;28;1308;-88
2022/07/31 04:01:15;;;;;;;;;;;;;;;15.57;89.29;100653.66;5010552;28;1019;-88
2022/07/31 04:03:41;;;;;;;;;;;;;;;15.54;89.23;100650.72;5009942;28;1332;-86
2022/07/31 04:06:06;;;;;;;;;;;;;;;15.57;89.66;100650.13;5010157;28;825;-88
2022/07/31 04:08:32;;;;;;;;;;;;;;;15.67;89.36;100655.38;5011591;28;948;-88
2022/07/31 04:10:57;;;;;;;;;;;;;;;15.50;88.91;100651.31;5011875;28;1243;-87
2022/07/31 04:13:22;;;;;;;;;;;;;;;15.49;89.67;100648.84;5016561;28;1292;-87
2022/07/31 04:15:47;;;;;;;;;;;;;;;15.65;89.94;100644.66;5030795;28;1936;-87
2022/07/31 04:18:12;;;;;;;;;;;;;;;15.49;89.54;100605.53;5027734;28;1680;-88
2022/07/31 04:20:37;;;;;;;;;;;;;;;15.62;89.63;100642.53;5011229;28;1288;-88
2022/07/31 04:23:03;;;;;;;;;;;;;;;15.61;90.07;100643.66;5010021;28;1114;-86
2022/07/31 04:25:28;;;;;;;;;;;;;;;15.55;90.90;100652.38;5010037;28;992;-89
2022/07/31 04:27:53;;;;;;;;;;;;;;;15.55;90.65;100647.66;5008271;28;981;-87
2022/07/31 04:30:18;;;;;;;;;;;;;;;15.48;91.24;100653.56;5010770;28;1312;-87
2022/07/31 04:32:43;;;;;;;;;;;;;;;15.55;91.53;100652.38;5009714;28;1527;-88
2022/07/31 04:35:09;;;;;;;;;;;;;;;15.70;91.89;100647.31;5009972;28;1567;-88
2022/07/31 04:37:34;;;;;;;;;;;;;;;15.73;91.29;100652.22;5007213;28;1918;-88
2022/07/31 04:39:59;;;;;;;;;;;;;;;15.74;91.42;100662.09;5009929;28;1371;-87
2022/07/31 04:42:24;;;;;;;;;;;;;;;15.76;91.67;100657.09;5007920;28;1420;-88
2022/07/31 04:44:49;;;;;;;;;;;;;;;15.81;91.57;100653.44;5008562;28;1572;-87
2022/07/31 04:47:14;;;;;;;;;;;;;;;15.86;91.49;100667.09;5006258;28;1340;-87
2022/07/31 04:49:40;;;;;;;;;;;;;;;15.82;91.15;100658.59;5008099;28;1273;-88
2022/07/31 04:52:05;;;;;;;;;;;;;;;15.84;91.58;100666.59;5007275;28;964;-88
2022/07/31 04:54:30;;;;;;;;;;;;;;;15.64;91.77;100667.88;5007800;28;1233;-88
2022/07/31 04:56:56;;;;;;;;;;;;;;;15.80;92.13;100676.63;5009760;28;1883;-88
2022/07/31 04:59:21;;;;;;;;;;;;;;;15.79;91.73;100669.47;5009193;28;1305;-88
2022/07/31 05:01:47;;;;;;;;;;;;;;;15.79;91.69;100675.81;5008764;28;1562;-87
2022/07/31 05:04:12;;;;;;;;;;;;;;;15.84;91.63;100669.34;5005840;28;1272;-87
2022/07/31 05:06:41;;;;;;;;;;;;;;;15.88;91.61;100664.84;5006982;28;1736;-86
2022/07/31 05:09:07;;;;;;;;;;;;;;;15.89;91.48;100666.47;5003838;28;1298;-86
2022/07/31 05:11:33;;;;;;;;;;;;;;;15.87;91.77;100665.97;5007386;28;884;-86
2022/07/31 05:13:59;;;;;;;;;;;;;;;15.94;91.53;100655.31;5004659;28;1197;-86
2022/07/31 05:16:25;;;;;;;;;;;;;;;16.01;91.77;100658.44;5005575;28;1886;-87
2022/07/31 05:18:53;;;;;;;;;;;;;;;16.07;91.84;100657.22;5008283;28;1304;-88
2022/07/31 05:21:19;;;;;;;;;;;;;;;16.18;91.93;100666.03;5008192;28;841;-88
2022/07/31 05:23:45;;;;;;;;;;;;;;;16.32;92.32;100664.06;5009211;28;962;-86
2022/07/31 05:26:11;;;;;;;;;;;;;;;16.38;92.57;100670.25;5009908;28;1051;-85
2022/07/31 05:28:37;;;;;;;;;;;;;;;16.38;92.51;100662.78;5011799;28;1271;-87
2022/07/31 05:31:02;;;;;;;;;;;;;;;16.38;92.80;100656.44;5006169;28;1501;-87
2022/07/31 05:33:28;;;;;;;;;;;;;;;16.43;92.99;100650.78;5010119;28;1197;-86
2022/07/31 05:35:54;;;;;;;;;;;;;;;16.44;93.64;100650.47;5011465;28;1906;-85
2022/07/31 05:38:19;;;;;;;;;;;;;;;16.47;93.29;100651.78;5011303;28;975;-86
2022/07/31 05:40:44;;;;;;;;;;;;;;;16.54;93.60;100657.66;5010979;28;1292;-88
2022/07/31 05:43:09;;;;;;;;;;;;;;;16.54;94.11;100652.97;5012754;28;1094;-85
2022/07/31 05:45:34;;;;;;;;;;;;;;;16.68;93.90;100650.13;5006988;28;1613;-87
2022/07/31 05:48:00;;;;;;;;;;;;;;;16.79;93.10;100645.16;5004547;28;1358;-86
2022/07/31 05:50:25;;;;;;;;;;;;;;;16.84;93.33;100645.03;5006752;28;1638;-85
2022/07/31 05:52:50;;;;;;;;;;;;;;;17.00;93.48;100632.41;4995853;28;1666;-86
2022/07/31 05:55:15;;;;;;;;;;;;;;;17.11;93.02;100628.19;4996980;28;1675;-86
2022/07/31 05:57:40;;;;;;;;;;;;;;;17.17;93.35;100629.69;5003068;28;1859;-85
2022/07/31 06:00:06;;;;;;;;;;;;;;;17.23;92.19;100631.16;5007655;28;1451;-87
2022/07/31 06:02:31;;;;;;;;;;;;;;;17.19;91.79;100640.41;5006110;28;1369;-87
2022/07/31 06:04:56;;;;;;;;;;;;;;;17.15;91.68;100623.66;5008024;28;1249;-87
2022/07/31 06:07:21;;;;;;;;;;;;;;;17.14;92.36;100623.97;5008145;28;1031;-86
2022/07/31 06:09:46;;;;;;;;;;;;;;;17.24;91.48;100634.75;5008129;28;1132;-87
2022/07/31 06:12:11;;;;;;;;;;;;;;;17.32;91.81;100631.19;5007857;28;984;-86
2022/07/31 06:14:37;;;;;;;;;;;;;;;17.35;91.30;100633.31;5004760;28;1515;-87
2022/07/31 06:17:05;;;;;;;;;;;;;;;17.42;91.36;100632.84;5006499;28;1898;-87
2022/07/31 06:19:31;;;;;;;;;;;;;;;17.40;90.50;100635.91;5007302;28;1229;-87
2022/07/31 06:21:56;;;;;;;;;;;;;;;17.38;90.46;100640.94;5007907;28;1055;-87
2022/07/31 06:24:21;;;;;;;;;;;;;;;17.39;90.03;100639.81;5008534;28;1055;-87
2022/07/31 06:26:46;;;;;;;;;;;;;;;17.42;90.54;100647.47;5008000;28;798;-86
2022/07/31 06:29:12;;;;;;;;;;;;;;;17.44;89.84;100647.94;5008421;28;1500;-87
2022/07/31 06:31:37;;;;;;;;;;;;;;;17.45;90.46;100646.00;5005287;28;1117;-88
2022/07/31 06:34:02;;;;;;;;;;;;;;;17.46;89.46;100637.38;5003548;28;898;-86
2022/07/31 06:36:27;;;;;;;;;;;;;;;17.46;88.61;100642.91;5003596;28;1962;-86
2022/07/31 06:38:53;;;;;;;;;;;;;;;17.44;89.04;100633.34;5002829;28;1240;-88
2022/07/31 06:44:02;;;;;;;;;;;;;;;17.41;89.44;100626.47;5002693;28;1503;-88
2022/07/31 06:46:27;;;;;;;;;;;;;;;17.42;89.01;100630.06;5003078;28;1138;-89
2022/07/31 06:48:52;;;;;;;;;;;;;;;17.43;89.49;100635.28;5003433;28;1315;-89
2022/07/31 06:51:18;;;;;;;;;;;;;;;17.48;88.08;100637.06;5001197;28;1451;-89
2022/07/31 06:53:43;;;;;;;;;;;;;;;17.64;89.41;100629.94;5003162;28;802;-87
2022/07/31 06:56:08;;;;;;;;;;;;;;;17.72;87.61;100624.41;5003130;28;1894;-88
2022/07/31 06:58:33;;;;;;;;;;;;;;;17.77;84.97;100624.28;5002763;28;1527;-87
2022/07/31 07:00:58;;;;;;;;;;;;;;;17.86;85.28;100626.22;5004273;28;1396;-88
2022/07/31 07:03:23;;;;;;;;;;;;;;;17.96;84.70;100620.34;5004265;28;1855;-88
2022/07/31 07:05:49;;;;;;;;;;;;;;;17.97;84.82;100616.44;5005919;28;1067;-87
2022/07/31 07:08:14;;;;;;;;;;;;;;;18.01;84.97;100620.19;5005979;28;917;-87
2022/07/31 07:10:39;;;;;;;;;;;;;;;18.06;83.78;100620.00;5005231;28;1633;-86
2022/07/31 07:13:04;;;;;;;;;;;;;;;18.20;83.37;100617.06;4989730;28;1626;-89
2022/07/31 07:15:29;;;;;;;;;;;;;;;18.33;83.17;100608.56;5000414;28;1898;-88
2022/07/31 07:17:54;;;;;;;;;;;;;;;18.50;81.70;100611.28;5001375;28;889;-88
2022/07/31 07:20:20;;;;;;;;;;;;;;;18.56;82.76;100603.59;5001411;28;1225;-86
2022/07/31 07:22:45;;;;;;;;;;;;;;;18.54;81.82;100605.91;5001917;28;1420;-88
2022/07/31 07:25:11;;;;;;;;;;;;;;;18.58;80.68;100609.66;5001254;28;814;-88
2022/07/31 07:27:36;;;;;;;;;;;;;;;18.57;80.56;100602.47;4998547;28;1507;-89
2022/07/31 07:30:02;;;;;;;;;;;;;;;18.57;81.71;100608.03;4997101;28;1391;-88
2022/07/31 07:32:27;;;;;;;;;;;;;;;18.56;83.38;100600.00;4996883;28;1351;-88
2022/07/31 07:34:52;;;;;;;;;;;;;;;18.55;81.52;100604.72;5006860;28;1257;-89
2022/07/31 07:37:17;;;;;;;;;;;;;;;18.59;80.60;100602.16;5007746;28;1875;-87
2022/07/31 07:39:43;;;;;;;;;;;;;;;18.64;80.52;100602.78;5000720;28;1472;-87
2022/07/31 07:42:08;;;;;;;;;;;;;;;18.67;81.18;100591.03;4998883;28;817;-86
2022/07/31 07:44:34;;;;;;;;;;;;;;;18.74;80.43;100585.78;4996446;28;1452;-88
2022/07/31 07:46:59;;;;;;;;;;;;;;;18.80;81.23;100578.06;4996001;28;1051;-87
2022/07/31 07:49:24;;;;;;;;;;;;;;;18.87;80.10;100583.94;4994828;28;1724;-86
2022/07/31 07:51:49;;;;;;;;;;;;;;;18.89;82.11;100578.84;4996139;28;900;-87
2022/07/31 07:54:14;;;;;;;;;;;;;;;18.90;80.90;100575.75;4995744;28;1460;-86
2022/07/31 07:56:39;;;;;;;;;;;;;;;18.94;80.34;100572.31;4996673;28;1902;-88
2022/07/31 07:59:05;;;;;;;;;;;;;;;18.97;79.38;100572.44;4984640;28;1247;-88
2022/07/31 08:01:30;;;;;;;;;;;;;;;19.00;79.96;100580.09;4978971;28;1382;-87
2022/07/31 08:03:55;;;;;;;;;;;;;;;19.00;79.65;100569.00;4992626;28;1567;-88
2022/07/31 08:06:20;;;;;;;;;;;;;;;19.02;81.36;100571.44;4994347;28;1385;-87
2022/07/31 08:08:46;;;;;;;;;;;;;;;19.04;81.61;100578.28;4994651;28;1974;-88
2022/07/31 08:11:11;;;;;;;;;;;;;;;19.07;81.47;100571.25;4994829;28;1479;-87
2022/07/31 08:13:36;;;;;;;;;;;;;;;19.10;82.45;100573.34;4995363;28;1472;-87
2022/07/31 08:16:01;;;;;;;;;;;;;;;19.12;82.07;100574.66;4976870;28;1957;-87
2022/07/31 08:18:26;;;;;;;;;;;;;;;19.17;82.00;100566.13;4993125;28;1480;-87
2022/07/31 08:20:51;;;;;;;;;;;;;;;19.20;80.03;100567.41;4997159;28;1576;-88
2022/07/31 08:23:17;;;;;;;;;;;;;;;19.28;79.95;100564.59;4993497;28;1785;-87
2022/07/31 08:25:42;;;;;;;;;;;;;;;19.34;81.00;100558.81;4997448;28;1506;-88
2022/07/31 08:28:07;;;;;;;;;;;;;;;19.36;78.84;100559.31;4999878;28;1722;-87
2022/07/31 08:30:32;;;;;;;;;;;;;;;19.36;79.20;100562.91;5000475;28;1209;-87
2022/07/31 08:32:58;;;;;;;;;;;;;;;19.42;76.67;100555.16;4997343;28;1567;-86
2022/07/31 08:35:23;;;;;;;;;;;;;;;19.45;77.00;100551.72;4987327;28;1464;-89
2022/07/31 08:37:48;;;;;;;;;;;;;;;19.45;77.95;100548.94;4983578;28;1938;-87
2022/07/31 08:40:15;;;;;;;;;;;;;;;19.49;78.50;100547.94;4989575;28;1515;-87
2022/07/31 08:42:41;;;;;;;;;;;;;;;19.54;78.36;100549.72;4979573;28;1620;-87
2022/07/31 08:45:06;;;;;;;;;;;;;;;19.60;78.23;100551.13;4984128;28;1505;-86
2022/07/31 08:47:33;;;;;;;;;;;;;;;19.64;78.29;100546.53;4998691;28;1601;-87
2022/07/31 08:49:58;;;;;;;;;;;;;;;19.73;78.11;100549.25;4999353;28;1379;-88
2022/07/31 08:52:24;;;;;;;;;;;;;;;19.76;77.17;100541.03;5003265;28;1192;-86
2022/07/31 08:54:50;;;;;;;;;;;;;;;19.81;77.14;100540.03;4995725;28;1440;-90
2022/07/31 08:57:16;;;;;;;;;;;;;;;19.85;76.46;100547.31;4999194;28;1898;-89
2022/07/31 08:59:41;;;;;;;;;;;;;;;19.83;76.47;100535.72;4998082;28;1591;-88
2022/07/31 09:02:10;;;;;;;;;;;;;;;19.82;76.87;100525.75;4999651;28;1286;-87
2022/07/31 09:04:35;;;;;;;;;;;;;;;19.82;75.61;100527.75;4991712;28;1385;-90
2022/07/31 09:07:00;;;;;;;;;;;;;;;19.82;76.13;100530.53;4997548;28;1769;-87
2022/07/31 09:09:26;;;;;;;;;;;;;;;19.77;76.96;100517.66;4997426;28;1579;-88
2022/07/31 09:11:54;;;;;;;;;;;;;;;19.78;77.18;100522.06;4997335;28;1746;-87
2022/07/31 09:14:30;;;;;;;;;;;;;;;19.85;76.24;100508.44;4996174;28;1448;-87
2022/07/31 09:16:55;;;;;;;;;;;;;;;19.95;77.63;100513.56;5040705;23;3630;-86
2022/07/31 09:19:21;;;;;;;;;;;;;;;20.14;77.40;100510.25;5009614;28;1499;-85
2022/07/31 09:21:47;;;;;;;;;;;;;;;20.29;77.00;100512.34;5017111;28;1427;-85
2022/07/31 09:24:23;;;;;;;;;;;;;;;20.37;74.79;100516.22;5007742;28;1422;-85
2022/07/31 09:26:52;;;;;;;;;;;;;;;20.43;74.59;100500.91;4998660;28;1527;-85
2022/07/31 09:29:17;;;;;;;;;;;;;;;20.47;75.72;100503.81;4990743;28;1584;-85
2022/07/31 09:31:42;;;;;;;;;;;;;;;20.48;75.90;100502.69;5006634;28;1427;-85
2022/07/31 09:34:07;;;;;;;;;;;;;;;20.47;74.35;100493.53;5004866;28;1639;-85
2022/07/31 09:36:32;;;;;;;;;;;;;;;20.47;74.57;100490.75;4997556;28;1890;-85
2022/07/31 09:39:00;;;;;;;;;;;;;;;20.50;74.46;100492.81;4995537;28;1239;-85
2022/07/31 09:41:26;;;;;;;;;;;;;;;20.59;74.70;100487.13;4996876;28;1686;-85
2022/07/31 09:43:54;;;;;;;;;;;;;;;20.63;74.56;100491.66;4993417;28;1535;-85
2022/07/31 09:46:19;;;;;;;;;;;;;;;20.70;76.00;100491.88;4994372;28;1364;-85
2022/07/31 09:48:49;;;;;;;;;;;;;;;20.75;73.76;100485.28;4991748;28;1444;-85
2022/07/31 09:51:14;;;;;;;;;;;;;;;20.82;72.71;100484.69;4994295;28;1507;-85
2022/07/31 09:53:48;;;;;;;;;;;;;;;20.89;74.51;100476.56;4985701;28;1379;-85
2022/07/31 09:56:14;;;;;;;;;;;;;;;20.89;73.26;100471.00;5003860;28;1898;-85
2022/07/31 09:58:40;;;;;;;;;;;;;;;20.92;73.27;100473.09;5014407;28;1691;-85
2022/07/31 10:01:07;;;;;;;;;;;;;;;20.94;74.90;100466.00;5015140;28;813;-85
2022/07/31 10:03:35;;;;;;;;;;;;;;;20.96;74.10;100469.25;5015510;28;920;-85
2022/07/31 10:06:01;;;;;;;;;;;;;;;20.99;72.48;100476.91;5013408;28;1299;-85
2022/07/31 10:08:27;;;;;;;;;;;;;;;21.03;72.59;100463.91;5011123;28;1574;-85
2022/07/31 10:10:52;;;;;;;;;;;;;;;21.06;73.05;100465.19;4995044;28;1216;-85
2022/07/31 10:13:19;;;;;;;;;;;;;;;21.08;72.97;100468.44;4993443;28;1691;-85
2022/07/31 10:15:45;;;;;;;;;;;;;;;21.16;72.94;100464.69;4981487;28;1977;-85
2022/07/31 10:18:10;;;;;;;;;;;;;;;21.24;72.49;100463.78;4994149;28;1377;-85
2022/07/31 10:20:36;;;;;;;;;;;;;;;21.30;72.51;100467.91;4994112;28;1472;-85
2022/07/31 10:23:05;;;;;;;;;;;;;;;21.35;71.35;100467.66;4995469;28;1422;-85
2022/07/31 10:25:34;;;;;;;;;;;;;;;21.37;70.35;100468.13;5007449;28;1279;-86
2022/07/31 10:28:00;;;;;;;;;;;;;;;21.38;69.22;100466.97;4989544;28;1425;-85
2022/07/31 10:30:25;;;;;;;;;;;;;;;21.45;70.26;100464.38;5006033;28;1062;-86
2022/07/31 10:32:50;;;;;;;;;;;;;;;21.48;70.15;100462.84;4998129;28;1386;-85
2022/07/31 10:35:21;;;;;;;;;;;;;;;21.51;69.76;100449.06;4999312;28;1277;-85
2022/07/31 10:37:55;;;;;;;;;;;;;;;21.50;70.83;100454.97;5013266;28;1890;-85
2022/07/31 10:40:24;;;;;;;;;;;;;;;21.50;68.49;100449.41;5014733;28;988;-85
2022/07/31 10:43:07;;;;;;;;;;;;;;;21.53;68.27;100446.69;5005223;28;1269;-85
2022/07/31 10:45:43;;;;;;;;;;;;;;;21.60;68.04;100440.53;5001993;28;1353;-85
2022/07/31 10:48:09;;;;;;;;;;;;;;;21.65;66.74;100440.25;5025628;28;1194;-85
2022/07/31 10:50:34;;;;;;;;;;;;;;;21.70;66.69;100433.59;4994638;28;987;-85
2022/07/31 10:53:10;;;;;;;;;;;;;;;21.73;68.65;100430.13;4993639;28;1301;-85
2022/07/31 10:55:35;;;;;;;;;;;;;;;21.75;67.77;100427.78;4992872;28;1969;-85
2022/07/31 10:58:08;;;;;;;;;;;;;;;21.79;69.21;100428.69;4994664;28;835;-86
2022/07/31 11:00:34;;;;;;;;;;;;;;;21.83;68.76;100419.25;4990896;28;1705;-85
2022/07/31 11:02:59;;;;;;;;;;;;;;;21.90;69.76;100421.41;4989657;28;1354;-85
2022/07/31 11:05:26;;;;;;;;;;;;;;;22.01;69.43;100413.38;4992806;28;1724;-86
2022/07/31 11:08:02;;;;;;;;;;;;;;;22.07;66.45;100401.59;4994251;28;885;-86
2022/07/31 11:10:27;;;;;;;;;;;;;;;22.19;69.16;100406.28;5026092;28;1265;-85
2022/07/31 11:13:06;;;;;;;;;;;;;;;22.25;67.44;100402.84;4994661;28;833;-85
2022/07/31 11:15:32;;;;;;;;;;;;;;;22.32;67.26;100402.19;4993405;28;1317;-85
2022/07/31 11:17:57;;;;;;;;;;;;;;;22.35;64.56;100395.09;4992854;28;1906;-85
2022/07/31 11:20:24;;;;;;;;;;;;;;;22.42;64.32;100396.06;4984402;28;1244;-85
2022/07/31 11:22:57;;;;;;;;;;;;;;;22.45;65.51;100391.75;4994975;28;889;-85
2022/07/31 11:25:23;;;;;;;;;;;;;;;22.50;64.98;100386.69;4994490;28;837;-85
2022/07/31 11:27:48;;;;;;;;;;;;;;;22.55;65.50;100389.19;4992889;28;1356;-85
2022/07/31 11:30:13;;;;;;;;;;;;;;;22.58;65.10;100382.09;4991622;28;1441;-87
2022/07/31 11:32:39;;;;;;;;;;;;;;;22.61;65.42;100387.75;4992629;28;1313;-86
2022/07/31 11:35:04;;;;;;;;;;;;;;;22.57;67.62;100381.28;4992666;28;1445;-85
2022/07/31 11:37:30;;;;;;;;;;;;;;;22.49;67.17;100373.09;4994735;28;1957;-86
2022/07/31 11:39:56;;;;;;;;;;;;;;;22.50;64.21;100369.16;4992485;28;1259;-86
2022/07/31 11:42:22;;;;;;;;;;;;;;;22.57;64.26;100374.88;4993173;28;1304;-86
2022/07/31 11:44:47;;;;;;;;;;;;;;;22.64;65.26;100358.28;4991736;28;1405;-86
2022/07/31 11:47:12;;;;;;;;;;;;;;;22.73;62.83;100367.25;4992370;28;1709;-86
2022/07/31 11:49:38;;;;;;;;;;;;;;;22.79;63.81;100362.25;4994415;28;1272;-85
2022/07/31 11:52:04;;;;;;;;;;;;;;;22.80;61.62;100356.28;4995602;28;905;-85
2022/07/31 11:54:29;;;;;;;;;;;;;;;22.79;62.11;100354.69;4993465;28;1290;-85
2022/07/31 11:56:55;;;;;;;;;;;;;;;22.80;66.56;100356.28;5008158;28;1898;-85
2022/07/31 11:59:33;;;;;;;;;;;;;;;22.81;62.15;100357.09;5016681;28;1164;-85
2022/07/31 12:02:17;;;;;;;;;;;;;;;22.83;60.95;100355.56;5011612;28;1711;-86
2022/07/31 12:04:42;;;;;;;;;;;;;;;22.84;61.40;100342.41;4977395;28;1370;-86
2022/07/31 12:07:08;;;;;;;;;;;;;;;22.88;66.25;100355.25;4978374;28;1323;-85
2022/07/31 12:09:34;;;;;;;;;;;;;;;22.89;65.81;100342.91;5012302;28;1512;-86
2022/07/31 12:12:00;;;;;;;;;;;;;;;22.90;64.51;100343.72;4995619;28;1538;-86
2022/07/31 12:14:29;;;;;;;;;;;;;;;23.10;60.26;100347.34;5000768;28;1590;-86
2022/07/31 12:16:54;;;;;;;;;;;;;;;23.12;62.53;100343.00;4998230;28;1969;-86
2022/07/31 12:19:27;;;;;;;;;;;;;;;23.20;63.45;100336.38;5008160;28;1434;-86
2022/07/31 12:21:52;;;;;;;;;;;;;;;23.17;64.31;100330.72;4983875;28;1521;-85
2022/07/31 12:24:19;;;;;;;;;;;;;;;23.17;62.42;100327.94;4994993;28;1373;-85
2022/07/31 12:26:51;;;;;;;;;;;;;;;23.23;61.37;100337.59;5000178;28;1341;-85
2022/07/31 12:29:16;;;;;;;;;;;;;;;23.45;58.10;100328.47;4995308;28;1550;-85
2022/07/31 12:31:43;;;;;;;;;;;;;;;23.53;60.17;100335.03;5030200;28;1222;-86
2022/07/31 12:34:08;;;;;;;;;;;;;;;23.45;59.58;100331.25;5004403;28;1503;-86
2022/07/31 12:36:33;;;;;;;;;;;;;;;23.41;60.85;100319.19;5015822;28;1902;-85
2022/07/31 12:38:59;;;;;;;;;;;;;;;23.44;59.03;100312.88;4994712;28;1558;-85
2022/07/31 12:41:25;;;;;;;;;;;;;;;23.55;61.12;100307.53;4977440;28;799;-85
2022/07/31 12:43:51;;;;;;;;;;;;;;;23.62;61.03;100319.63;4975809;28;1221;-86
2022/07/31 12:46:16;;;;;;;;;;;;;;;23.71;57.28;100303.41;4977101;28;1268;-86